Time;durP1;ratioP1;P1;durP2;ratioP2;P2;SDS_P1;SDS_P2;PMS_P1;PMS_P2;Temp;Humidity;BMP_temperature;BMP_pressure;BME280_temperature;BME280_humidity;BME280_pressure;Samples;Min_cycle;Max_cycle;Signal;HPM_P1;HPM_P2
2022/11/16 00:02:10;;;;;;;508.10;149.00;;;11.60;99.90;;;;;;5086699;28;20311;-52
2022/11/16 00:04:38;;;;;;;872.73;292.80;;;11.60;99.90;;;;;;5079012;28;20292;-51
2022/11/16 00:07:07;;;;;;;832.07;256.07;;;11.60;99.90;;;;;;5088668;28;20254;-52
2022/11/16 00:09:36;;;;;;;1067.10;237.67;;;11.60;99.90;;;;;;5089235;28;20207;-52
2022/11/16 00:12:07;;;;;;;1999.90;468.03;;;11.60;99.90;;;;;;5082501;28;20296;-52
2022/11/16 00:14:36;;;;;;;1999.90;597.03;;;11.60;99.90;;;;;;5088965;28;20259;-52
2022/11/16 00:17:04;;;;;;;1999.90;683.70;;;11.60;99.90;;;;;;5061894;28;20742;-51
2022/11/16 00:19:32;;;;;;;1999.90;530.10;;;11.60;99.90;;;;;;5071504;28;20287;-51
2022/11/16 00:22:00;;;;;;;1999.90;834.00;;;11.60;99.90;;;;;;5078021;28;20294;-52
2022/11/16 00:24:28;;;;;;;1999.90;404.40;;;11.60;99.90;;;;;;5089017;28;20315;-52
2022/11/16 00:26:58;;;;;;;1999.90;557.50;;;11.60;99.90;;;;;;5088946;28;20761;-52
2022/11/16 00:29:27;;;;;;;655.07;169.47;;;11.50;99.90;;;;;;5072649;28;20239;-52
2022/11/16 00:31:55;;;;;;;1348.40;471.33;;;11.50;99.90;;;;;;5088911;28;20621;-51
2022/11/16 00:34:23;;;;;;;852.77;245.10;;;11.50;99.90;;;;;;5074783;28;20228;-52
2022/11/16 00:36:52;;;;;;;1999.90;837.23;;;11.50;99.90;;;;;;5078082;28;20301;-51
2022/11/16 00:39:20;;;;;;;1058.80;225.33;;;11.60;99.90;;;;;;5071955;28;20208;-51
2022/11/16 00:41:49;;;;;;;517.50;142.87;;;11.50;99.90;;;;;;5087811;28;20296;-51
2022/11/16 00:44:18;;;;;;;775.90;228.60;;;11.50;99.90;;;;;;5090443;28;20690;-52
2022/11/16 00:46:46;;;;;;;861.17;218.67;;;11.40;99.90;;;;;;5092659;28;20286;-52
2022/11/16 00:49:14;;;;;;;1409.23;304.80;;;11.40;99.90;;;;;;5091597;28;20657;-50
2022/11/16 00:51:43;;;;;;;478.43;137.23;;;11.50;99.90;;;;;;5092458;28;20208;-51
2022/11/16 00:54:11;;;;;;;1602.37;326.50;;;11.50;99.90;;;;;;5092245;28;20765;-51
2022/11/16 00:56:39;;;;;;;296.73;80.53;;;11.40;99.90;;;;;;5092278;28;20216;-51
2022/11/16 00:59:07;;;;;;;664.73;241.53;;;11.40;99.90;;;;;;5078391;28;20210;-51
2022/11/16 01:01:36;;;;;;;1949.10;399.77;;;11.40;99.90;;;;;;5086874;28;20304;-51
2022/11/16 01:04:05;;;;;;;619.73;206.10;;;11.40;99.90;;;;;;5090244;28;20647;-52
2022/11/16 01:06:33;;;;;;;852.77;241.47;;;11.30;99.90;;;;;;5082450;28;20632;-51
2022/11/16 01:09:01;;;;;;;619.77;150.27;;;11.40;99.90;;;;;;5089236;28;20243;-51
2022/11/16 01:14:26;;;;;;;220.90;79.77;;;11.30;99.90;;;;;;5009202;28;20715;-52
2022/11/16 01:16:55;;;;;;;586.80;143.73;;;11.30;99.90;;;;;;5056925;28;20240;-51
2022/11/16 01:19:23;;;;;;;242.53;67.07;;;11.30;99.90;;;;;;5071091;28;20259;-51
2022/11/16 01:21:52;;;;;;;258.57;68.07;;;11.30;99.90;;;;;;5069303;28;20662;-52
2022/11/16 01:24:20;;;;;;;116.67;37.90;;;11.30;99.90;;;;;;5069803;28;20213;-52
2022/11/16 01:26:48;;;;;;;848.53;268.40;;;11.30;99.90;;;;;;5067872;28;20297;-51
2022/11/16 01:29:16;;;;;;;578.67;147.33;;;11.30;99.90;;;;;;5070874;28;20750;-52
2022/11/16 01:31:44;;;;;;;687.83;178.97;;;11.30;99.90;;;;;;5061052;28;20252;-52
2022/11/16 01:34:13;;;;;;;810.50;192.37;;;11.30;99.90;;;;;;5070239;28;20587;-51
2022/11/16 01:36:41;;;;;;;1062.27;391.90;;;11.30;99.90;;;;;;5071238;28;20746;-52
2022/11/16 01:39:11;;;;;;;1999.90;532.20;;;11.30;99.90;;;;;;5068926;28;20304;-51
2022/11/16 01:41:39;;;;;;;252.97;97.30;;;11.20;99.90;;;;;;5062443;28;20300;-56
2022/11/16 01:44:46;;;;;;;616.80;163.90;;;11.20;99.90;;;;;;5070425;28;20295;-52
2022/11/16 01:47:16;;;;;;;212.73;61.27;;;11.20;99.90;;;;;;5070725;28;20572;-52
2022/11/16 01:49:49;;;;;;;236.63;76.27;;;11.20;99.90;;;;;;5057966;28;20757;-52
2022/11/16 01:52:23;;;;;;;716.03;221.40;;;11.20;99.90;;;;;;5070818;28;20312;-52
2022/11/16 01:54:53;;;;;;;613.03;166.97;;;11.20;99.90;;;;;;5070921;28;20854;-51
2022/11/16 01:57:25;;;;;;;262.27;92.47;;;11.20;99.90;;;;;;5070452;28;20296;-52
2022/11/16 01:59:57;;;;;;;624.87;143.50;;;11.20;99.90;;;;;;5071021;28;20213;-52
2022/11/16 02:02:26;;;;;;;1704.97;449.73;;;11.20;99.90;;;;;;5070604;28;20291;-52
2022/11/16 02:04:57;;;;;;;1676.43;361.37;;;11.10;99.90;;;;;;5068874;28;20201;-51
2022/11/16 02:09:52;;;;;;;860.90;246.37;;;11.10;99.90;;;;;;5070675;28;20667;-52
2022/11/16 02:10:46;;;;;;;651.93;175.40;;;11.10;99.90;;;;;;5070357;28;20295;-51
2022/11/16 02:13:28;;;;;;;868.00;273.13;;;11.20;99.90;;;;;;5066240;28;20250;-52
2022/11/16 02:16:05;;;;;;;167.17;44.97;;;11.20;99.90;;;;;;5070974;28;20299;-52
2022/11/16 02:18:39;;;;;;;644.97;136.67;;;11.10;99.90;;;;;;5069584;28;20205;-51
2022/11/16 02:21:35;;;;;;;183.83;46.50;;;11.20;99.90;;;;;;5067450;28;20304;-51
2022/11/16 02:24:23;;;;;;;470.70;135.97;;;11.20;99.90;;;;;;5052245;28;20312;-51
2022/11/16 02:27:29;;;;;;;328.53;94.30;;;11.10;99.90;;;;;;5069890;28;20331;-51
2022/11/16 02:29:58;;;;;;;376.50;95.03;;;11.10;99.90;;;;;;5057807;28;20328;-51
2022/11/16 02:32:31;;;;;;;501.70;140.50;;;11.10;99.90;;;;;;5070201;28;20228;-52
2022/11/16 02:35:04;;;;;;;735.00;213.20;;;11.10;99.90;;;;;;5067425;28;20235;-52
2022/11/16 02:37:37;;;;;;;450.53;140.87;;;11.00;99.90;;;;;;5070285;28;20292;-52
2022/11/16 02:40:09;;;;;;;127.73;51.50;;;11.10;99.90;;;;;;5070189;28;20304;-52
2022/11/16 02:42:41;;;;;;;917.03;223.33;;;11.10;99.90;;;;;;5069368;28;20311;-52
2022/11/16 02:45:17;;;;;;;273.97;84.67;;;11.10;99.90;;;;;;5069469;28;20765;-52
2022/11/16 02:47:47;;;;;;;273.93;96.50;;;11.10;99.90;;;;;;5070282;28;20287;-52
2022/11/16 02:50:20;;;;;;;498.83;113.80;;;11.10;99.90;;;;;;5069357;28;20856;-52
2022/11/16 02:52:48;;;;;;;895.40;248.27;;;11.10;99.90;;;;;;5069701;28;20252;-50
2022/11/16 02:55:16;;;;;;;308.87;101.97;;;11.10;99.90;;;;;;5059819;28;20225;-52
2022/11/16 02:57:50;;;;;;;638.07;169.43;;;11.00;99.90;;;;;;5057056;28;20658;-52
2022/11/16 03:00:22;;;;;;;213.13;77.27;;;11.00;99.90;;;;;;5065786;28;20643;-52
2022/11/16 03:02:59;;;;;;;462.77;112.73;;;11.00;99.90;;;;;;5069276;28;20316;-51
2022/11/16 03:05:33;;;;;;;506.20;144.03;;;11.00;99.90;;;;;;5068581;28;20204;-51
2022/11/16 03:08:08;;;;;;;581.33;115.33;;;11.00;99.90;;;;;;5060985;28;20209;-51
2022/11/16 03:13:30;;;;;;;1059.87;206.00;;;11.00;99.90;;;;;;5068547;28;20323;-51
2022/11/16 03:16:02;;;;;;;1002.03;283.10;;;11.00;99.90;;;;;;5069559;28;20313;-52
2022/11/16 03:18:30;;;;;;;762.17;196.30;;;11.00;99.90;;;;;;5068919;28;20288;-52
2022/11/16 03:21:14;;;;;;;1528.03;408.20;;;11.00;99.90;;;;;;5069421;28;20216;-51
2022/11/16 03:23:44;;;;;;;1386.93;259.57;;;11.00;99.90;;;;;;5054807;28;20315;-52
2022/11/16 03:26:16;;;;;;;830.97;196.97;;;10.90;99.90;;;;;;5069559;28;20250;-52
2022/11/16 03:28:55;;;;;;;1336.43;194.07;;;10.90;99.90;;;;;;5069485;28;20209;-52
2022/11/16 03:31:29;;;;;;;1814.90;398.57;;;10.90;99.90;;;;;;5069093;28;20207;-52
2022/11/16 03:34:03;;;;;;;1999.90;369.03;;;10.90;99.90;;;;;;5055179;28;20234;-52
2022/11/16 03:36:33;;;;;;;949.10;219.83;;;11.00;99.90;;;;;;5067528;28;20245;-52
2022/11/16 03:39:06;;;;;;;1169.87;248.20;;;11.00;99.90;;;;;;5055385;28;20292;-52
2022/11/16 03:41:39;;;;;;;1053.50;242.63;;;11.00;99.90;;;;;;5068855;28;20295;-51
2022/11/16 03:44:09;;;;;;;474.00;124.30;;;11.00;99.90;;;;;;5054739;28;20248;-51
2022/11/16 03:46:39;;;;;;;835.03;174.47;;;11.00;99.90;;;;;;5061542;28;20295;-52
2022/11/16 03:49:08;;;;;;;1028.23;208.10;;;10.90;99.90;;;;;;5068496;28;20759;-52
2022/11/16 03:51:36;;;;;;;1216.10;229.93;;;10.90;99.90;;;;;;5069007;28;20250;-52
2022/11/16 03:54:04;;;;;;;694.07;141.83;;;10.80;99.90;;;;;;5067834;28;20333;-51
2022/11/16 03:56:32;;;;;;;885.97;195.13;;;10.90;99.90;;;;;;5069130;28;20235;-52
2022/11/16 03:59:00;;;;;;;830.10;247.60;;;10.90;99.90;;;;;;5068082;28;20307;-52
2022/11/16 04:01:28;;;;;;;592.00;122.93;;;10.90;99.90;;;;;;5069146;28;20240;-51
2022/11/16 04:03:58;;;;;;;936.13;197.90;;;10.90;99.90;;;;;;5067842;28;20224;-52
2022/11/16 04:25:53;;;;;;;646.63;160.20;;;10.90;99.90;;;;;;5072216;28;20733;-52
2022/11/16 04:28:24;;;;;;;317.00;102.87;;;10.80;99.90;;;;;;5072503;28;20696;-51
2022/11/16 04:39:12;;;;;;;541.60;143.90;;;10.80;99.90;;;;;;5073222;28;20299;-52
2022/11/16 04:47:05;;;;;;;179.33;68.57;;;10.70;99.90;;;;;;5067474;28;20251;-52
2022/11/16 04:47:13;;;;;;;741.10;138.00;;;10.70;99.90;;;;;;5071876;28;20666;-52
2022/11/16 04:49:41;;;;;;;1010.47;239.97;;;10.70;99.90;;;;;;5071872;28;20307;-52
2022/11/16 04:52:10;;;;;;;447.67;137.33;;;10.70;99.90;;;;;;5071662;28;20296;-52
2022/11/16 04:54:38;;;;;;;386.30;118.87;;;10.70;99.90;;;;;;5072418;28;20296;-52
2022/11/16 04:57:06;;;;;;;663.33;165.00;;;10.70;99.90;;;;;;5071730;28;20275;-52
2022/11/16 04:59:34;;;;;;;714.03;139.93;;;10.70;99.90;;;;;;5071857;28;20288;-52
2022/11/16 05:02:08;;;;;;;569.77;134.77;;;10.70;99.90;;;;;;5070869;28;20324;-51
2022/11/16 05:04:37;;;;;;;827.17;176.20;;;10.70;99.90;;;;;;5071380;28;20258;-51
2022/11/16 05:07:09;;;;;;;208.60;45.53;;;10.80;99.90;;;;;;5071990;28;20278;-52
2022/11/16 05:09:41;;;;;;;816.37;202.00;;;10.80;99.90;;;;;;5072018;28;20205;-52
2022/11/16 05:12:10;;;;;;;677.97;144.43;;;10.80;99.90;;;;;;5071580;28;20219;-51
2022/11/16 05:14:38;;;;;;;677.40;165.63;;;10.80;99.90;;;;;;5071612;28;20237;-50
2022/11/16 05:17:06;;;;;;;584.37;127.53;;;10.80;99.90;;;;;;5071506;28;20765;-51
2022/11/16 05:22:20;;;;;;;635.40;180.97;;;10.70;99.90;;;;;;5070119;28;20355;-52
2022/11/16 05:24:49;;;;;;;1090.97;258.73;;;10.70;99.90;;;;;;5071012;28;20733;-52
2022/11/16 05:27:19;;;;;;;502.03;113.40;;;10.70;99.90;;;;;;5071140;28;20656;-52
2022/11/16 05:29:48;;;;;;;807.83;193.10;;;10.70;99.90;;;;;;5064040;28;20244;-50
2022/11/16 05:32:17;;;;;;;970.40;255.87;;;10.70;99.90;;;;;;5068792;28;20620;-52
2022/11/16 05:34:46;;;;;;;393.80;91.70;;;10.70;99.90;;;;;;5065024;28;20251;-52
2022/11/16 05:37:14;;;;;;;963.97;304.33;;;10.60;99.90;;;;;;5070592;28;20225;-52
2022/11/16 05:39:42;;;;;;;676.50;204.57;;;10.60;99.90;;;;;;5071346;28;20239;-52
2022/11/16 05:42:11;;;;;;;433.47;104.00;;;10.60;99.90;;;;;;5064873;28;20648;-52
2022/11/16 05:44:39;;;;;;;412.97;107.40;;;10.60;99.90;;;;;;5070931;28;20211;-51
2022/11/16 05:47:07;;;;;;;1139.87;331.53;;;10.60;99.90;;;;;;5071276;28;20296;-52
2022/11/16 05:49:35;;;;;;;294.07;64.73;;;10.60;99.90;;;;;;5070764;28;20291;-52
2022/11/16 05:52:04;;;;;;;551.63;160.70;;;10.60;99.90;;;;;;5070925;28;20236;-51
2022/11/16 05:54:32;;;;;;;1200.53;363.27;;;10.60;99.90;;;;;;5070852;28;20988;-52
2022/11/16 05:57:00;;;;;;;1473.80;360.33;;;10.70;99.90;;;;;;5070500;28;20311;-52
2022/11/16 05:59:29;;;;;;;485.70;149.73;;;10.70;99.90;;;;;;5057395;28;20211;-51
2022/11/16 06:01:57;;;;;;;756.37;135.27;;;10.70;99.90;;;;;;5070778;28;20202;-51
2022/11/16 06:04:26;;;;;;;574.77;166.83;;;10.70;99.90;;;;;;5070708;28;20259;-50
2022/11/16 06:06:54;;;;;;;580.83;167.23;;;10.70;99.90;;;;;;5070203;28;20244;-51
2022/11/16 06:09:22;;;;;;;306.43;92.97;;;10.70;99.90;;;;;;5070190;28;20208;-52
2022/11/16 06:11:50;;;;;;;657.97;183.97;;;10.70;99.90;;;;;;5070073;28;20906;-51
2022/11/16 06:14:18;;;;;;;558.67;120.63;;;10.70;99.90;;;;;;5070087;28;20315;-51
2022/11/16 06:16:47;;;;;;;517.70;125.97;;;10.70;99.90;;;;;;5070492;28;20577;-52
2022/11/16 06:19:16;;;;;;;744.00;179.23;;;10.70;99.90;;;;;;5066061;28;20299;-52
2022/11/16 06:21:44;;;;;;;603.97;154.20;;;10.70;99.90;;;;;;5070496;28;20213;-53
2022/11/16 06:24:12;;;;;;;467.17;72.47;;;10.60;99.90;;;;;;5070027;28;20776;-53
2022/11/16 06:26:40;;;;;;;489.57;133.73;;;10.60;99.90;;;;;;5070668;28;20318;-53
2022/11/16 06:29:08;;;;;;;949.23;230.83;;;10.60;99.90;;;;;;5069734;28;20733;-52
2022/11/16 06:31:36;;;;;;;340.27;92.73;;;10.70;99.90;;;;;;5070330;28;20293;-52
2022/11/16 06:34:05;;;;;;;359.90;95.70;;;10.60;99.90;;;;;;5068921;28;20825;-52
2022/11/16 06:36:33;;;;;;;206.93;60.10;;;10.70;99.90;;;;;;5066339;28;20264;-51
2022/11/16 06:39:01;;;;;;;52.30;29.83;;;10.70;99.90;;;;;;5063629;28;20715;-52
2022/11/16 06:41:30;;;;;;;378.47;80.70;;;10.60;99.90;;;;;;5068684;28;20288;-51
2022/11/16 06:43:58;;;;;;;435.93;105.10;;;10.70;99.90;;;;;;5068761;28;20231;-52
2022/11/16 06:46:26;;;;;;;479.27;150.90;;;10.60;99.90;;;;;;5069253;28;20228;-52
2022/11/16 06:48:56;;;;;;;717.70;187.80;;;10.60;99.90;;;;;;5068699;28;20201;-52
2022/11/16 06:51:26;;;;;;;469.80;114.10;;;10.70;99.90;;;;;;5069639;28;20293;-53
2022/11/16 06:53:54;;;;;;;137.17;59.47;;;10.70;99.90;;;;;;5063401;28;20331;-52
2022/11/16 06:56:22;;;;;;;598.63;135.90;;;10.60;99.90;;;;;;5069962;28;20292;-52
2022/11/16 06:58:50;;;;;;;452.30;111.93;;;10.70;99.90;;;;;;5065875;28;20300;-51
2022/11/16 07:01:20;;;;;;;232.07;71.10;;;10.70;99.90;;;;;;5069359;28;20259;-52
2022/11/16 07:03:48;;;;;;;1065.87;352.67;;;10.70;99.90;;;;;;5068517;28;20244;-52
2022/11/16 07:06:16;;;;;;;664.03;172.93;;;10.70;99.90;;;;;;5069667;28;20236;-51
2022/11/16 07:08:46;;;;;;;831.30;247.87;;;10.70;99.90;;;;;;5068526;28;20746;-52
2022/11/16 07:11:14;;;;;;;287.93;84.43;;;10.80;99.90;;;;;;5068620;28;20677;-52
2022/11/16 07:13:42;;;;;;;1571.53;570.03;;;10.80;99.90;;;;;;5068446;28;20231;-52
2022/11/16 07:16:11;;;;;;;583.77;194.67;;;10.80;99.90;;;;;;5068715;28;20213;-51
2022/11/16 07:18:41;;;;;;;907.67;282.27;;;10.80;99.90;;;;;;5064837;28;20304;-53
2022/11/16 07:21:11;;;;;;;820.30;185.53;;;10.80;99.90;;;;;;5069375;28;20296;-52
2022/11/16 07:23:40;;;;;;;781.87;226.63;;;10.70;99.90;;;;;;5068552;28;20244;-52
2022/11/16 07:26:10;;;;;;;458.03;113.50;;;10.70;99.90;;;;;;5069028;28;20296;-52
2022/11/16 07:28:39;;;;;;;304.47;83.40;;;10.80;99.90;;;;;;5069115;28;20201;-52
2022/11/16 07:31:15;;;;;;;784.53;242.97;;;10.80;99.90;;;;;;5069045;28;20685;-52
2022/11/16 07:33:43;;;;;;;750.30;186.37;;;10.70;99.90;;;;;;5067864;28;20839;-52
2022/11/16 07:36:14;;;;;;;889.40;316.83;;;10.70;99.90;;;;;;5068495;28;20211;-52
2022/11/16 07:38:42;;;;;;;206.97;79.93;;;10.70;99.90;;;;;;5068931;28;20320;-52
2022/11/16 07:41:13;;;;;;;580.13;192.90;;;10.80;99.90;;;;;;5069354;28;20291;-52
2022/11/16 07:43:42;;;;;;;638.67;177.57;;;10.80;99.90;;;;;;5067636;28;20320;-52
2022/11/16 07:46:18;;;;;;;358.53;96.57;;;10.90;99.90;;;;;;5069090;28;20673;-53
2022/11/16 07:49:06;;;;;;;206.70;66.17;;;10.90;99.90;;;;;;5068081;28;20216;-56
2022/11/16 07:51:38;;;;;;;733.57;214.40;;;10.90;99.90;;;;;;5069843;28;20216;-52
2022/11/16 07:54:07;;;;;;;427.00;105.90;;;11.00;99.90;;;;;;5068338;28;20225;-52
2022/11/16 07:56:36;;;;;;;573.47;182.10;;;10.90;99.90;;;;;;5068844;28;20252;-51
2022/11/16 07:59:04;;;;;;;534.40;148.97;;;11.00;99.90;;;;;;5068831;28;20224;-51
2022/11/16 08:01:33;;;;;;;396.70;81.80;;;10.90;99.90;;;;;;5061825;28;20208;-52
2022/11/16 08:04:01;;;;;;;301.50;85.83;;;10.90;99.90;;;;;;5057199;28;20283;-51
2022/11/16 08:06:31;;;;;;;1115.43;381.97;;;10.90;99.90;;;;;;5067924;28;20219;-52
2022/11/16 08:08:59;;;;;;;876.53;278.00;;;10.90;99.90;;;;;;5068825;28;20231;-50
2022/11/16 08:11:27;;;;;;;518.77;142.10;;;10.90;99.90;;;;;;5068068;28;20204;-52
2022/11/16 08:13:57;;;;;;;450.27;118.73;;;11.00;99.90;;;;;;5067803;28;20408;-53
2022/11/16 08:16:25;;;;;;;180.97;52.70;;;11.00;99.90;;;;;;5067847;28;20304;-52
2022/11/16 08:18:53;;;;;;;762.70;152.97;;;11.00;99.90;;;;;;5068153;28;20263;-52
2022/11/16 08:21:21;;;;;;;758.60;154.67;;;10.90;99.90;;;;;;5067747;28;20248;-51
2022/11/16 08:23:49;;;;;;;794.97;162.37;;;10.90;99.90;;;;;;5067834;28;20276;-52
2022/11/16 08:26:25;;;;;;;656.67;190.00;;;10.90;99.90;;;;;;5068451;28;20693;-52
2022/11/16 08:28:55;;;;;;;700.53;207.20;;;10.90;99.90;;;;;;5068095;28;20288;-52
2022/11/16 08:31:26;;;;;;;666.80;185.77;;;10.90;99.90;;;;;;5068364;28;20670;-52
2022/11/16 08:33:55;;;;;;;958.57;193.60;;;10.90;99.90;;;;;;5059216;28;20320;-52
2022/11/16 08:36:23;;;;;;;1135.07;248.33;;;11.00;99.90;;;;;;5067760;28;20295;-52
2022/11/16 08:38:52;;;;;;;497.03;128.47;;;11.00;99.90;;;;;;5068774;28;20312;-51
2022/11/16 08:41:21;;;;;;;1254.80;293.63;;;10.90;99.90;;;;;;5068663;28;20240;-52
2022/11/16 08:43:52;;;;;;;1366.53;365.03;;;11.00;99.90;;;;;;5067999;28;20612;-52
2022/11/16 08:46:20;;;;;;;1212.53;323.30;;;11.00;99.90;;;;;;5065022;28;20205;-52
2022/11/16 08:48:50;;;;;;;751.30;175.60;;;11.00;99.90;;;;;;5068018;28;20654;-52
2022/11/16 08:51:18;;;;;;;1108.80;357.93;;;11.00;99.90;;;;;;5068465;28;20252;-52
2022/11/16 08:53:48;;;;;;;660.03;141.73;;;11.10;99.90;;;;;;5068186;28;20274;-51
2022/11/16 08:56:18;;;;;;;747.20;177.83;;;11.10;99.90;;;;;;5068315;28;20216;-51
2022/11/16 08:58:47;;;;;;;674.87;153.63;;;11.20;99.90;;;;;;5068353;28;20642;-51
2022/11/16 09:01:22;;;;;;;1604.87;412.00;;;11.20;99.90;;;;;;5075107;28;20196;-52
2022/11/16 09:03:52;;;;;;;621.57;137.13;;;11.20;99.90;;;;;;5066952;28;20229;-52
2022/11/16 09:06:21;;;;;;;1398.17;426.33;;;11.10;99.90;;;;;;5069242;28;20212;-51
2022/11/16 09:08:50;;;;;;;850.83;182.57;;;11.20;99.90;;;;;;5065344;28;20665;-51
2022/11/16 09:11:20;;;;;;;452.33;113.47;;;11.30;99.90;;;;;;5070544;28;20670;-51
2022/11/16 09:13:50;;;;;;;725.03;160.33;;;11.20;99.90;;;;;;5071008;28;20225;-52
2022/11/16 09:16:19;;;;;;;298.37;109.40;;;11.30;99.90;;;;;;5071428;28;20304;-52
2022/11/16 09:18:49;;;;;;;800.10;177.07;;;11.30;99.90;;;;;;5067604;28;20225;-53
2022/11/16 09:21:19;;;;;;;123.57;43.67;;;11.40;99.90;;;;;;5071663;28;20300;-52
2022/11/16 09:23:48;;;;;;;1321.17;291.23;;;11.40;99.90;;;;;;5063764;28;20713;-52
2022/11/16 09:26:20;;;;;;;1307.40;273.70;;;11.50;99.90;;;;;;5071345;28;20296;-53
2022/11/16 09:28:54;;;;;;;1899.10;342.47;;;11.60;99.90;;;;;;5071935;28;20205;-52
2022/11/16 09:31:22;;;;;;;820.57;218.90;;;11.80;99.90;;;;;;5071535;28;20638;-52
2022/11/16 09:33:51;;;;;;;1371.33;263.30;;;11.80;99.90;;;;;;5070797;28;20258;-51
2022/11/16 09:36:20;;;;;;;800.07;178.27;;;11.80;99.90;;;;;;5070522;28;20288;-52
2022/11/16 09:38:49;;;;;;;666.77;168.13;;;11.80;99.90;;;;;;5071529;28;20256;-52
2022/11/16 09:42:01;;;;;;;275.83;55.43;;;11.80;99.90;;;;;;5064533;28;20201;-51
2022/11/16 09:44:44;;;;;;;920.90;240.33;;;11.80;99.90;;;;;;5064622;28;20233;-52
2022/11/16 09:47:17;;;;;;;615.97;138.73;;;11.80;99.90;;;;;;5063157;28;20912;-53
2022/11/16 09:49:51;;;;;;;753.33;147.47;;;11.90;99.90;;;;;;5071076;28;20209;-52
2022/11/16 09:52:31;;;;;;;398.03;87.37;;;11.90;99.90;;;;;;5067324;28;20254;-51
2022/11/16 09:55:03;;;;;;;573.97;150.87;;;12.10;99.90;;;;;;5070583;28;20236;-53
2022/11/16 09:57:36;;;;;;;472.47;105.73;;;12.20;99.90;;;;;;5070484;28;20732;-51
2022/11/16 10:00:14;;;;;;;474.33;95.17;;;12.10;99.90;;;;;;5068900;28;20247;-52
2022/11/16 10:02:46;;;;;;;701.37;165.03;;;12.10;99.90;;;;;;5069473;28;20264;-52
2022/11/16 10:05:20;;;;;;;1057.00;235.23;;;12.20;99.90;;;;;;5060060;28;20202;-52
2022/11/16 10:07:52;;;;;;;1168.83;284.97;;;12.20;99.90;;;;;;5069380;28;20227;-52
2022/11/16 10:10:32;;;;;;;1722.33;410.83;;;12.20;99.90;;;;;;5070471;28;20295;-52
2022/11/16 10:13:10;;;;;;;1068.57;298.00;;;12.20;99.90;;;;;;5069185;28;20271;-52
2022/11/16 10:15:50;;;;;;;883.60;203.00;;;12.30;99.90;;;;;;5070805;28;20227;-52
2022/11/16 10:18:29;;;;;;;1780.17;483.97;;;12.30;99.90;;;;;;5062207;28;20319;-53
2022/11/16 10:21:22;;;;;;;466.20;105.57;;;12.30;99.90;;;;;;5069412;28;20741;-52
2022/11/16 10:24:08;;;;;;;797.90;197.03;;;12.20;99.90;;;;;;5056388;28;20316;-52
2022/11/16 10:26:45;;;;;;;1999.90;320.57;;;12.20;99.90;;;;;;5070284;28;20774;-52
2022/11/16 10:29:37;;;;;;;1730.73;361.33;;;12.20;99.90;;;;;;5068510;28;20733;-52
2022/11/16 10:32:15;;;;;;;1246.80;304.77;;;12.40;99.90;;;;;;5067743;28;20252;-53
2022/11/16 10:34:50;;;;;;;1063.13;271.20;;;12.70;99.90;;;;;;5068837;28;20291;-52
2022/11/16 10:37:19;;;;;;;1999.90;608.83;;;12.70;99.90;;;;;;5062444;28;20288;-52
2022/11/16 10:39:51;;;;;;;1403.60;355.73;;;12.70;99.90;;;;;;5069304;28;20366;-52
2022/11/16 10:42:26;;;;;;;1576.30;457.50;;;12.70;99.90;;;;;;5069480;28;20629;-52
2022/11/16 10:44:59;;;;;;;1319.73;313.47;;;12.70;99.90;;;;;;5069564;28;20672;-52
2022/11/16 10:47:37;;;;;;;845.73;198.93;;;12.60;99.90;;;;;;5069832;28;20205;-52
2022/11/16 10:50:23;;;;;;;803.40;236.33;;;12.70;99.90;;;;;;5069861;28;20309;-52
2022/11/16 10:52:51;;;;;;;971.90;300.27;;;12.60;99.90;;;;;;5057005;28;20233;-52
2022/11/16 10:55:22;;;;;;;613.07;163.97;;;12.60;99.90;;;;;;5069082;28;20306;-52
2022/11/16 10:57:54;;;;;;;727.20;164.67;;;12.50;99.90;;;;;;5069072;28;20278;-52
2022/11/16 11:00:38;;;;;;;756.73;192.73;;;12.60;99.90;;;;;;5069385;28;20307;-52
2022/11/16 11:03:09;;;;;;;805.57;233.43;;;12.60;99.90;;;;;;5069091;28;20259;-52
2022/11/16 11:05:46;;;;;;;719.23;190.27;;;12.50;99.90;;;;;;5069351;28;20278;-51
2022/11/16 11:08:25;;;;;;;1999.90;577.90;;;12.60;99.90;;;;;;5069448;28;20315;-50
2022/11/16 11:12:36;;;;;;;1999.90;444.07;;;12.70;99.90;;;;;;5068948;28;20682;-51
2022/11/16 11:14:05;;;;;;;1202.90;284.57;;;12.90;99.90;;;;;;5067914;28;20240;-51
2022/11/16 11:16:33;;;;;;;1420.70;298.87;;;13.00;99.90;;;;;;5067730;28;20291;-52
2022/11/16 11:19:19;;;;;;;1998.23;398.57;;;13.00;99.90;;;;;;5067451;28;20225;-52
2022/11/16 11:21:48;;;;;;;1999.90;547.57;;;12.90;99.90;;;;;;5065470;28;20215;-51
2022/11/16 11:24:18;;;;;;;1999.90;484.53;;;12.70;99.90;;;;;;5066544;28;20316;-51
2022/11/16 11:27:07;;;;;;;1393.60;438.70;;;12.70;99.90;;;;;;5063410;28;20204;-51
2022/11/16 11:29:37;;;;;;;1999.90;572.93;;;12.60;99.90;;;;;;5065523;28;20247;-51
2022/11/16 11:32:07;;;;;;;1243.63;279.27;;;12.40;99.90;;;;;;5067881;28;20228;-51
2022/11/16 11:34:41;;;;;;;1679.37;499.20;;;12.40;99.90;;;;;;5071693;28;20343;-51
2022/11/16 11:37:15;;;;;;;897.77;243.60;;;12.40;99.90;;;;;;5072213;28;20299;-51
2022/11/16 11:39:44;;;;;;;1462.90;354.20;;;12.50;99.90;;;;;;5073448;28;20212;-51
2022/11/16 11:42:23;;;;;;;656.20;166.13;;;12.50;99.90;;;;;;5069053;28;20581;-51
2022/11/16 11:44:58;;;;;;;798.23;198.43;;;12.60;99.90;;;;;;5068369;28;20287;-51
2022/11/16 11:47:46;;;;;;;1054.47;316.50;;;12.60;99.90;;;;;;5069427;28;20291;-52
2022/11/16 11:50:44;;;;;;;678.43;209.70;;;12.60;99.90;;;;;;5068903;28;20208;-52
2022/11/16 11:53:21;;;;;;;1324.60;393.07;;;12.70;99.90;;;;;;5067999;28;20307;-52
2022/11/16 11:55:55;;;;;;;851.57;194.07;;;12.60;99.90;;;;;;5067865;28;20240;-52
2022/11/16 11:58:29;;;;;;;876.10;226.03;;;12.50;99.90;;;;;;5068653;28;20313;-52
2022/11/16 12:01:17;;;;;;;706.83;183.60;;;12.50;99.90;;;;;;5068306;28;20726;-51
2022/11/16 12:04:14;;;;;;;1778.33;442.07;;;12.50;99.90;;;;;;5068285;28;20231;-51
2022/11/16 12:06:52;;;;;;;926.13;245.30;;;12.50;99.90;;;;;;5064927;28;20244;-51
2022/11/16 12:09:34;;;;;;;658.10;117.80;;;12.30;99.90;;;;;;5068635;28;20225;-52
2022/11/16 12:12:14;;;;;;;422.33;108.33;;;12.30;99.90;;;;;;5066677;28;20243;-53
2022/11/16 12:15:02;;;;;;;545.20;132.87;;;12.30;99.90;;;;;;5069026;28;20208;-52
2022/11/16 12:17:39;;;;;;;559.40;163.77;;;12.20;99.90;;;;;;5068240;28;20721;-52
2022/11/16 12:20:28;;;;;;;962.07;296.27;;;12.10;99.90;;;;;;5067220;28;20256;-51
2022/11/16 12:23:17;;;;;;;607.90;196.80;;;12.10;99.90;;;;;;5058051;28;20225;-53
2022/11/16 12:25:54;;;;;;;1046.77;324.83;;;12.00;99.90;;;;;;5070296;28;20288;-52
2022/11/16 12:28:43;;;;;;;1516.63;603.07;;;12.00;99.90;;;;;;5068465;28;20642;-51
2022/11/16 12:31:46;;;;;;;458.27;114.60;;;12.00;99.90;;;;;;5068423;28;20701;-52
2022/11/16 12:34:27;;;;;;;896.53;265.63;;;12.00;99.90;;;;;;5056656;28;20307;-52
2022/11/16 12:37:00;;;;;;;1037.17;344.23;;;12.00;99.90;;;;;;5069032;28;20315;-51
2022/11/16 12:39:34;;;;;;;1305.07;379.17;;;11.90;99.90;;;;;;5059327;28;20312;-52
2022/11/16 12:42:15;;;;;;;1092.13;257.17;;;11.80;99.90;;;;;;5071752;28;20295;-52
2022/11/16 12:45:15;;;;;;;550.63;154.07;;;11.90;99.90;;;;;;5071638;28;20323;-51
2022/11/16 12:47:57;;;;;;;1178.63;298.10;;;11.80;99.90;;;;;;5071880;28;20241;-52
2022/11/16 12:50:41;;;;;;;165.47;37.03;;;11.80;99.90;;;;;;5071428;28;20285;-52
2022/11/16 12:53:27;;;;;;;849.70;253.53;;;11.80;99.90;;;;;;5063548;28;20319;-52
2022/11/16 12:56:04;;;;;;;1009.47;287.17;;;11.80;99.90;;;;;;5069630;28;20643;-52
2022/11/16 12:58:47;;;;;;;1078.40;300.67;;;11.80;99.90;;;;;;5072140;28;20295;-51
2022/11/16 13:01:20;;;;;;;857.37;256.10;;;11.80;99.90;;;;;;5071312;28;20689;-52
2022/11/16 13:03:54;;;;;;;1353.03;279.33;;;11.90;99.90;;;;;;5071254;28;20752;-52
2022/11/16 13:06:30;;;;;;;724.40;154.23;;;12.00;99.90;;;;;;5058690;28;20305;-52
2022/11/16 13:09:04;;;;;;;433.40;121.23;;;12.00;99.90;;;;;;5072333;28;20377;-52
2022/11/16 13:11:37;;;;;;;1192.40;279.33;;;12.00;99.90;;;;;;5071466;28;20575;-52
2022/11/16 13:14:11;;;;;;;1784.33;481.03;;;12.00;99.90;;;;;;5070772;28;20256;-52